Pagrindinis puslapis
METAR-TAF:

METAR-TAF

Oro uostai :

Yao, Japonija

platuma: 34-36N, ilguma: 135-36E, Aukštis: 10 m

Dabartinis oras

Ataskaita buvo paskelbta 44 minutes, ne 04:00 UTC
Vėjas 16 kt iš Vakarų
Temperatūra 12°C
Drėgmė 47%
Slėgis 1016 hPa
Matomumas 10 km arba daugiau
Mažai debesys ne aukštis 3000 ft
Išsisklaidę debesys ne aukštis 6000 ft

METAR: RJOY 200400Z 28016KT 9999 FEW030 SCT060 12/01 Q1016

Laikas: 13:44 (04:44 UTC)


TAF: trūkstamas

Orai ataskaitas ir orų prognozės (METAR, TAF).

turimą stotys yra geltonos ir raudonos taškus žemėlapyje.

Perkelti pele per norėdami pamatyti stoties vardą.

Tada spustelėkite, norėdami matyti oro stebėjimo ir prognozės.

Norėdami pakeisti žemėlapį: spustelėkite ant žalios mygtukų su juodo kryžiaus žemyn,; žalią mygtuką su brūkšneliu, jei norite nutolinti; arba žalių rodyklių gretimoms žemėlapius.


METAR-TAF: